Time;durP1;ratioP1;P1;durP2;ratioP2;P2;SDS_P1;SDS_P2;PMS_P1;PMS_P2;Temp;Humidity;BMP_temperature;BMP_pressure;BME280_temperature;BME280_humidity;BME280_pressure;Samples;Min_cycle;Max_cycle;Signal;HPM_P1;HPM_P2
2021/10/01 00:00:27;;;;;;;6.07;1.10;;;;;;;7.79;66.39;96314.81;5038585;28;20243;-78
2021/10/01 00:02:53;;;;;;;1.60;0.80;;;;;;;7.85;66.16;96309.19;5038770;28;20217;-79
2021/10/01 00:05:19;;;;;;;1.40;1.00;;;;;;;7.80;66.29;96308.72;5038684;28;20314;-78
2021/10/01 00:07:45;;;;;;;1.60;0.90;;;;;;;7.85;66.23;96296.25;5022051;28;20202;-79
2021/10/01 00:10:11;;;;;;;3.63;0.90;;;;;;;7.80;66.87;96298.38;5039672;28;20174;-78
2021/10/01 00:12:36;;;;;;;4.87;0.90;;;;;;;7.78;66.78;96295.09;5035518;28;20693;-77
2021/10/01 00:15:04;;;;;;;3.53;1.50;;;;;;;7.82;66.95;96291.31;5018190;28;20629;-77
2021/10/01 00:17:29;;;;;;;1.70;0.80;;;;;;;7.74;67.39;96298.00;5020437;28;20193;-77
2021/10/01 00:19:55;;;;;;;1.47;0.87;;;;;;;7.66;67.60;96283.84;5037105;28;20170;-77
2021/10/01 00:22:20;;;;;;;3.63;0.90;;;;;;;7.71;67.72;96285.28;5020819;28;20573;-77
2021/10/01 00:24:46;;;;;;;2.50;0.83;;;;;;;7.69;67.72;96279.41;5055009;28;20537;-77
2021/10/01 00:27:13;;;;;;;1.80;1.00;;;;;;;7.64;68.28;96277.97;5037902;28;20829;-77
2021/10/01 00:29:39;;;;;;;2.17;1.00;;;;;;;7.60;68.18;96284.31;5038076;28;20181;-77
2021/10/01 00:32:05;;;;;;;3.50;0.90;;;;;;;7.53;68.65;96277.94;5039121;28;20542;-78
2021/10/01 00:34:30;;;;;;;1.80;0.73;;;;;;;7.57;68.78;96266.44;5024509;28;20180;-77
2021/10/01 00:36:56;;;;;;;2.50;1.00;;;;;;;7.51;69.29;96274.66;5042070;28;20641;-77
2021/10/01 00:39:21;;;;;;;2.00;0.70;;;;;;;7.54;68.77;96263.25;5041082;28;20572;-78
2021/10/01 00:41:46;;;;;;;3.00;1.10;;;;;;;7.49;68.92;96263.56;5057210;28;20669;-78
2021/10/01 00:44:12;;;;;;;1.73;1.07;;;;;;;7.50;69.17;96261.81;5040110;28;20201;-78
2021/10/01 00:46:37;;;;;;;2.73;1.10;;;;;;;7.51;69.00;96258.28;5040320;28;20198;-78
2021/10/01 00:49:02;;;;;;;2.20;1.00;;;;;;;7.52;69.02;96258.19;5023962;28;20178;-77
2021/10/01 00:51:28;;;;;;;4.60;1.13;;;;;;;7.52;69.00;96259.97;5062643;28;20557;-79
2021/10/01 00:53:55;;;;;;;4.00;1.07;;;;;;;7.50;68.88;96256.66;5063621;28;20253;-77
2021/10/01 00:56:20;;;;;;;1.10;0.90;;;;;;;7.48;69.04;96251.59;5056732;28;20205;-77
2021/10/01 00:58:46;;;;;;;3.93;1.20;;;;;;;7.52;68.84;96253.03;5023393;28;20205;-78
2021/10/01 01:01:11;;;;;;;1.93;0.90;;;;;;;7.48;68.83;96243.84;5023643;28;20231;-78
2021/10/01 01:03:42;;;;;;;1.83;1.00;;;;;;;7.44;69.00;96237.25;5039385;28;20185;-76
2021/10/01 01:06:14;;;;;;;2.63;0.87;;;;;;;7.44;69.49;96239.03;5040704;28;20269;-78
2021/10/01 01:08:48;;;;;;;3.43;1.00;;;;;;;7.42;69.30;96243.44;5056514;28;20772;-78
2021/10/01 01:11:48;;;;;;;5.10;0.90;;;;;;;7.44;69.16;96236.44;5057197;28;20170;-77
2021/10/01 01:14:20;;;;;;;3.17;1.20;;;;;;;7.40;69.46;96238.41;5054967;28;20188;-78
2021/10/01 01:16:46;;;;;;;1.60;1.10;;;;;;;7.43;69.36;96232.22;5056592;28;20194;-77
2021/10/01 01:19:21;;;;;;;2.80;1.10;;;;;;;7.41;69.13;96224.53;5056288;28;20599;-78
2021/10/01 01:22:03;;;;;;;2.13;1.07;;;;;;;7.44;69.21;96229.50;5056654;28;20273;-77
2021/10/01 01:24:36;;;;;;;2.70;1.10;;;;;;;7.39;69.14;96221.25;5056322;28;20178;-78
2021/10/01 01:27:20;;;;;;;1.67;0.80;;;;;;;7.42;69.25;96218.47;5023334;28;20635;-77
2021/10/01 01:30:11;;;;;;;1.87;1.03;;;;;;;7.40;69.34;96212.56;5057617;28;20545;-77
2021/10/01 01:32:40;;;;;;;2.30;1.00;;;;;;;7.51;68.82;96211.78;5056480;28;20181;-78
2021/10/01 01:35:13;;;;;;;2.07;1.10;;;;;;;7.48;68.65;96212.00;5055918;28;20178;-78
2021/10/01 01:37:52;;;;;;;1.53;0.77;;;;;;;7.48;68.63;96212.00;5056484;28;20194;-79
2021/10/01 01:40:20;;;;;;;1.57;0.80;;;;;;;7.58;68.33;96208.63;5057425;28;20180;-78
2021/10/01 01:42:46;;;;;;;2.60;1.20;;;;;;;7.55;68.29;96206.28;5071848;28;20216;-77
2021/10/01 01:45:13;;;;;;;3.33;1.00;;;;;;;7.54;68.48;96201.22;5055119;28;20637;-77
2021/10/01 01:47:39;;;;;;;3.60;1.23;;;;;;;7.61;67.93;96202.44;5040099;28;20213;-78
2021/10/01 01:50:06;;;;;;;3.67;1.27;;;;;;;7.60;67.94;96198.19;5056305;28;20533;-78
2021/10/01 01:52:32;;;;;;;3.20;1.07;;;;;;;7.53;68.04;96195.25;5056498;28;20181;-78
2021/10/01 01:54:57;;;;;;;2.00;1.07;;;;;;;7.62;67.86;96189.38;5055642;28;20178;-78
2021/10/01 01:57:23;;;;;;;1.97;0.80;;;;;;;7.52;68.23;96200.53;5040034;28;20197;-78
2021/10/01 01:59:50;;;;;;;2.20;1.10;;;;;;;7.42;68.52;96184.88;5072678;28;20178;-77
2021/10/01 02:02:17;;;;;;;3.57;1.00;;;;;;;7.43;68.50;96183.13;5056116;28;20182;-78
2021/10/01 02:04:43;;;;;;;1.87;1.00;;;;;;;7.33;68.57;96177.75;5055354;28;20182;-78
2021/10/01 02:07:09;;;;;;;1.07;0.93;;;;;;;7.35;68.99;96178.50;5056183;28;20220;-77
2021/10/01 02:09:35;;;;;;;3.17;1.10;;;;;;;7.35;69.17;96178.50;5056471;28;20611;-78
2021/10/01 02:12:01;;;;;;;6.53;1.50;;;;;;;7.29;69.08;96176.34;5055162;28;20257;-77
2021/10/01 02:14:28;;;;;;;4.40;1.23;;;;;;;7.29;68.99;96173.78;5036732;28;20272;-77
2021/10/01 02:16:55;;;;;;;2.23;1.27;;;;;;;7.25;69.50;96177.53;5054898;28;20280;-77
2021/10/01 02:19:21;;;;;;;3.20;1.17;;;;;;;7.21;69.52;96170.91;5055322;28;20189;-77
2021/10/01 02:21:48;;;;;;;1.23;0.93;;;;;;;7.24;69.31;96168.09;5054874;28;20182;-77
2021/10/01 02:24:14;;;;;;;1.90;1.00;;;;;;;7.19;69.45;96165.06;5054603;28;20185;-77
2021/10/01 02:26:44;;;;;;;3.80;1.10;;;;;;;7.24;69.35;96165.53;5055180;28;20281;-77
2021/10/01 02:29:12;;;;;;;3.67;0.93;;;;;;;7.32;68.50;96161.44;5055469;28;20174;-78
2021/10/01 02:31:51;;;;;;;2.27;1.00;;;;;;;7.26;68.91;96161.09;5056398;28;20174;-77
2021/10/01 02:34:21;;;;;;;6.83;1.13;;;;;;;7.25;69.02;96149.94;5055177;28;20181;-77
2021/10/01 02:36:46;;;;;;;2.93;1.00;;;;;;;7.25;69.11;96162.03;5055550;28;20182;-77
2021/10/01 02:39:11;;;;;;;2.23;1.67;;;;;;;7.17;69.55;96154.00;5038556;28;20174;-77
2021/10/01 02:41:37;;;;;;;2.73;1.13;;;;;;;7.15;69.54;96150.69;5038442;28;20650;-77
2021/10/01 02:44:02;;;;;;;4.17;1.27;;;;;;;7.13;69.57;96161.16;5037312;28;20185;-77
2021/10/01 02:46:27;;;;;;;1.67;0.97;;;;;;;7.06;69.83;96141.84;5038190;28;20198;-78
2021/10/01 02:48:53;;;;;;;1.60;1.00;;;;;;;7.10;69.70;96145.88;5053540;28;20184;-77
2021/10/01 02:51:19;;;;;;;3.17;1.20;;;;;;;7.01;69.71;96144.78;5018540;28;20186;-77
2021/10/01 02:53:59;;;;;;;2.47;0.87;;;;;;;7.01;69.94;96139.63;5051269;28;20174;-77
2021/10/01 02:56:33;;;;;;;2.30;0.90;;;;;;;6.95;70.05;96131.50;5051623;28;20698;-77
2021/10/01 02:59:02;;;;;;;2.27;1.30;;;;;;;7.03;70.04;96130.00;5051792;28;20241;-77
2021/10/01 03:01:28;;;;;;;0.77;0.70;;;;;;;7.03;69.79;96132.59;5053207;28;20178;-77
2021/10/01 03:03:57;;;;;;;2.00;0.90;;;;;;;7.00;69.58;96135.41;5053336;28;20275;-77
2021/10/01 03:06:23;;;;;;;2.30;1.30;;;;;;;7.12;69.34;96130.25;5051727;28;20229;-77
2021/10/01 03:08:51;;;;;;;1.53;0.93;;;;;;;7.06;69.25;96127.19;5051430;28;20300;-77
2021/10/01 03:11:17;;;;;;;2.57;1.00;;;;;;;7.06;69.60;96126.38;5053161;28;20178;-77
2021/10/01 03:13:45;;;;;;;3.10;1.00;;;;;;;7.01;69.77;96129.28;5051853;28;20260;-77
2021/10/01 03:16:11;;;;;;;7.43;1.30;;;;;;;6.95;69.99;96123.75;5050930;28;20185;-77
2021/10/01 03:18:37;;;;;;;2.20;1.20;;;;;;;6.88;70.38;96123.34;5034737;28;20181;-77
2021/10/01 03:21:03;;;;;;;4.00;1.07;;;;;;;6.89;70.38;96130.19;5053077;28;20216;-77
2021/10/01 03:23:29;;;;;;;3.30;0.90;;;;;;;6.88;70.19;96125.13;5054435;28;20174;-77
2021/10/01 03:25:54;;;;;;;2.10;1.00;;;;;;;6.86;70.88;96120.06;5053837;28;20185;-78
2021/10/01 03:28:21;;;;;;;1.33;0.93;;;;;;;6.86;70.21;96112.31;5055141;28;20292;-77
2021/10/01 03:30:47;;;;;;;1.60;1.10;;;;;;;6.87;70.64;96115.72;5052569;28;20182;-79
2021/10/01 03:33:12;;;;;;;2.03;1.10;;;;;;;6.85;70.34;96118.44;5053899;28;20711;-77
2021/10/01 03:35:40;;;;;;;1.20;1.03;;;;;;;6.83;70.53;96125.47;5036398;28;20190;-77
2021/10/01 03:38:06;;;;;;;6.13;1.00;;;;;;;6.80;70.57;96121.34;5054103;28;20251;-77
2021/10/01 03:40:32;;;;;;;2.27;1.00;;;;;;;6.75;70.74;96112.28;5053521;28;20186;-77
2021/10/01 03:42:58;;;;;;;2.60;0.80;;;;;;;6.71;71.07;96116.00;5053742;28;20190;-78
2021/10/01 03:45:23;;;;;;;2.47;0.90;;;;;;;6.70;70.86;96114.34;5035609;28;20181;-76
2021/10/01 03:47:48;;;;;;;1.70;0.70;;;;;;;6.66;71.13;96112.94;5051245;28;20580;-77
2021/10/01 03:50:14;;;;;;;1.50;0.87;;;;;;;6.63;71.29;96113.19;5053449;28;20194;-77
2021/10/01 03:52:39;;;;;;;3.23;1.00;;;;;;;6.55;71.52;96113.72;5038084;28;20197;-77
2021/10/01 03:55:06;;;;;;;0.77;0.77;;;;;;;6.52;71.62;96104.41;5020706;28;20181;-77
2021/10/01 03:57:32;;;;;;;1.73;0.97;;;;;;;6.50;71.68;96106.28;5052610;28;20197;-77
2021/10/01 03:59:57;;;;;;;3.23;0.90;;;;;;;6.45;71.76;96110.16;5018040;28;20177;-77
2021/10/01 04:02:23;;;;;;;1.70;0.93;;;;;;;6.42;72.00;96106.00;5051124;28;20263;-77
2021/10/01 04:04:48;;;;;;;0.83;0.77;;;;;;;6.41;72.01;96100.97;5033442;28;20190;-77
2021/10/01 04:07:13;;;;;;;2.00;0.90;;;;;;;6.39;72.20;96095.09;5038064;28;20577;-77
2021/10/01 04:09:38;;;;;;;2.23;0.77;;;;;;;6.38;72.11;96099.44;5040946;28;20558;-78
2021/10/01 04:12:04;;;;;;;2.77;0.80;;;;;;;6.41;72.17;96093.22;5041020;28;20192;-77
2021/10/01 04:14:29;;;;;;;2.57;1.03;;;;;;;6.34;72.29;96090.25;5056777;28;20194;-78
2021/10/01 04:16:55;;;;;;;4.03;0.90;;;;;;;6.35;72.22;96081.56;5040647;28;20200;-77
2021/10/01 04:19:20;;;;;;;1.77;1.13;;;;;;;6.40;72.17;96087.22;5040733;28;20182;-77
2021/10/01 04:21:46;;;;;;;1.27;0.90;;;;;;;6.36;72.39;96085.81;5024095;28;20180;-77
2021/10/01 04:24:11;;;;;;;3.27;1.00;;;;;;;6.37;72.24;96087.47;5023471;28;20182;-77
2021/10/01 04:26:37;;;;;;;1.80;0.70;;;;;;;6.38;72.32;96085.72;5059111;28;20224;-77
2021/10/01 04:29:02;;;;;;;4.77;1.00;;;;;;;6.42;72.02;96082.78;5056946;28;20605;-77
2021/10/01 04:31:28;;;;;;;3.37;0.97;;;;;;;6.44;72.08;96083.50;5054903;28;20184;-76
2021/10/01 04:33:53;;;;;;;1.83;0.80;;;;;;;6.47;72.52;96083.28;5038025;28;20672;-78
2021/10/01 04:36:18;;;;;;;1.47;1.07;;;;;;;6.49;71.98;96081.41;5040689;28;20496;-77
2021/10/01 04:38:44;;;;;;;3.40;1.03;;;;;;;6.44;72.40;96083.50;5040488;28;20790;-77
2021/10/01 04:41:10;;;;;;;1.83;1.00;;;;;;;6.49;72.60;96086.59;5055562;28;20186;-77
2021/10/01 04:43:36;;;;;;;3.83;1.00;;;;;;;6.42;72.61;96085.38;5054063;28;20189;-77
2021/10/01 04:46:01;;;;;;;1.17;0.90;;;;;;;6.38;72.75;96083.94;5039930;28;20174;-77
2021/10/01 04:48:26;;;;;;;3.30;0.93;;;;;;;6.34;73.45;96086.84;5024473;28;20250;-78
2021/10/01 04:50:52;;;;;;;1.77;0.90;;;;;;;6.30;73.65;96086.25;5042578;28;20178;-78
2021/10/01 04:53:17;;;;;;;4.73;1.00;;;;;;;6.30;73.80;96086.25;5042141;28;20177;-78
2021/10/01 04:55:46;;;;;;;1.30;1.20;;;;;;;6.31;74.08;96087.88;5041796;28;20185;-78
2021/10/01 04:58:11;;;;;;;2.07;0.93;;;;;;;6.23;74.25;96079.88;5041479;28;20218;-78
2021/10/01 05:00:36;;;;;;;1.53;1.10;;;;;;;6.20;74.74;96077.50;5025287;28;20178;-78
2021/10/01 05:03:02;;;;;;;2.87;1.10;;;;;;;6.15;74.97;96077.81;5058247;28;20174;-77
2021/10/01 05:05:28;;;;;;;3.50;1.30;;;;;;;6.12;75.05;96075.47;5040201;28;20269;-78
2021/10/01 05:07:53;;;;;;;2.23;1.33;;;;;;;6.09;75.91;96077.41;5057697;28;20279;-78
2021/10/01 05:10:18;;;;;;;2.27;1.13;;;;;;;6.08;75.89;96068.03;5057647;28;20182;-77
2021/10/01 05:12:44;;;;;;;2.83;1.20;;;;;;;6.08;76.30;96075.78;5038145;28;20220;-78
2021/10/01 05:15:10;;;;;;;3.23;1.47;;;;;;;6.11;76.55;96078.16;5056528;28;20285;-78
2021/10/01 05:17:37;;;;;;;2.03;1.00;;;;;;;6.14;76.38;96070.19;5058136;28;20221;-78
2021/10/01 05:20:05;;;;;;;1.97;1.60;;;;;;;6.13;76.98;96069.38;5058303;28;20177;-78
2021/10/01 05:22:30;;;;;;;1.70;1.17;;;;;;;6.16;77.21;96069.16;5058804;28;20234;-78
2021/10/01 05:24:55;;;;;;;5.00;1.20;;;;;;;6.21;77.29;96068.84;5059045;28;20182;-78
2021/10/01 05:27:21;;;;;;;5.10;1.13;;;;;;;6.29;77.07;96063.97;5059512;28;20209;-78
2021/10/01 05:29:46;;;;;;;3.73;1.13;;;;;;;6.28;77.03;96067.47;5041499;28;20182;-78
2021/10/01 05:32:12;;;;;;;3.03;0.97;;;;;;;6.27;77.01;96062.41;5041894;28;20185;-78
2021/10/01 05:34:37;;;;;;;2.37;1.07;;;;;;;6.29;76.98;96063.16;5040855;28;20182;-80
2021/10/01 05:37:03;;;;;;;5.43;1.47;;;;;;;6.28;76.92;96064.91;5056045;28;20207;-79
2021/10/01 05:39:29;;;;;;;1.90;1.00;;;;;;;6.32;76.97;96065.50;5057093;28;20225;-78
2021/10/01 05:41:55;;;;;;;6.63;1.30;;;;;;;6.33;77.63;96060.22;5079453;28;20196;-78
2021/10/01 05:44:20;;;;;;;1.73;1.20;;;;;;;6.36;77.10;96060.03;5060344;28;20182;-77
2021/10/01 05:46:46;;;;;;;3.23;1.47;;;;;;;6.40;77.13;96066.59;5079523;28;20204;-78
2021/10/01 05:49:24;;;;;;;6.77;1.57;;;;;;;6.42;76.93;96059.56;5042857;28;20549;-78
2021/10/01 05:51:52;;;;;;;3.03;1.40;;;;;;;6.52;76.76;96064.88;5045331;28;20272;-78
2021/10/01 05:54:21;;;;;;;9.37;1.70;;;;;;;6.56;76.85;96062.94;5062781;28;20258;-78
2021/10/01 05:56:56;;;;;;;2.07;1.10;;;;;;;6.68;77.20;96059.44;5062564;28;20284;-79
2021/10/01 05:59:22;;;;;;;2.53;1.33;;;;;;;6.76;76.76;96063.13;5079447;28;20184;-78
2021/10/01 06:01:48;;;;;;;2.60;1.33;;;;;;;6.86;76.65;96055.53;5059629;28;20189;-77
2021/10/01 06:04:14;;;;;;;3.90;1.10;;;;;;;6.97;76.35;96058.13;5054613;28;20547;-76
2021/10/01 06:06:40;;;;;;;2.37;1.10;;;;;;;7.06;76.07;96060.03;5068689;28;20197;-77
2021/10/01 06:09:09;;;;;;;2.23;1.30;;;;;;;7.13;75.12;96067.34;5074376;28;20185;-77
2021/10/01 06:11:37;;;;;;;4.13;1.40;;;;;;;7.10;75.44;96055.50;5040708;28;20291;-77
2021/10/01 06:14:02;;;;;;;2.77;1.20;;;;;;;7.16;75.24;96062.78;5059344;28;20181;-77
2021/10/01 06:16:27;;;;;;;6.40;1.30;;;;;;;7.19;74.39;96059.16;5075484;28;20216;-77
2021/10/01 06:18:53;;;;;;;1.60;1.17;;;;;;;7.35;73.78;96063.06;5053655;28;20177;-76
2021/10/01 06:21:19;;;;;;;1.83;1.07;;;;;;;7.35;73.68;96062.22;5066008;28;20181;-78
2021/10/01 06:23:44;;;;;;;3.47;1.10;;;;;;;7.46;72.98;96066.59;5039192;28;20181;-76
2021/10/01 06:26:09;;;;;;;1.80;1.40;;;;;;;7.56;72.53;96073.53;5055489;28;20262;-78
2021/10/01 06:28:35;;;;;;;2.67;1.40;;;;;;;7.53;72.24;96073.75;5055720;28;20229;-78
2021/10/01 06:31:02;;;;;;;2.20;1.30;;;;;;;7.63;71.62;96074.72;5054579;28;20234;-77
2021/10/01 06:33:28;;;;;;;4.53;1.43;;;;;;;7.69;71.45;96075.19;5053417;28;20227;-75
2021/10/01 06:35:54;;;;;;;5.27;1.60;;;;;;;7.80;71.20;96072.59;5034948;28;20263;-75
2021/10/01 06:38:19;;;;;;;2.17;1.27;;;;;;;7.88;71.37;96072.84;5052660;28;20796;-77
2021/10/01 06:40:44;;;;;;;1.83;1.17;;;;;;;8.01;71.26;96073.53;5053180;28;20189;-77
2021/10/01 06:43:11;;;;;;;1.30;0.90;;;;;;;8.05;71.57;96072.34;5053044;28;20189;-76
2021/10/01 06:45:38;;;;;;;4.67;1.23;;;;;;;8.16;71.09;96063.75;5052107;28;20185;-75
2021/10/01 07:21:02;;;;;;;2.73;1.70;;;;;;;8.47;71.38;96065.59;5053217;28;20185;-77
2021/10/01 07:29:42;;;;;;;2.60;1.47;;;;;;;9.56;70.77;96056.72;5037609;28;20710;-75
2021/10/01 07:38:55;;;;;;;2.33;1.67;;;;;;;9.84;70.54;96056.00;5070296;28;20235;-76
2021/10/01 08:20:35;;;;;;;3.17;1.57;;;;;;;11.00;65.71;96052.81;5054244;28;20216;-76
2021/10/01 08:23:00;;;;;;;3.27;1.53;;;;;;;11.06;65.81;96058.31;5051687;28;20707;-76
2021/10/01 08:25:25;;;;;;;2.47;1.40;;;;;;;11.19;65.20;96058.00;5069872;28;20702;-77
2021/10/01 08:27:51;;;;;;;2.20;1.40;;;;;;;11.34;64.63;96053.19;5036209;28;20205;-77
2021/10/01 08:30:16;;;;;;;2.23;1.40;;;;;;;11.34;64.73;96050.59;5066952;28;20242;-78
2021/10/01 08:32:42;;;;;;;1.33;1.23;;;;;;;11.41;65.46;96038.69;5052380;28;20542;-76
2021/10/01 08:35:08;;;;;;;3.13;1.17;;;;;;;11.48;65.04;96041.50;5031316;28;20193;-76
2021/10/01 08:37:34;;;;;;;2.73;1.97;;;;;;;11.54;65.05;96036.56;5054852;28;20229;-74
2021/10/01 08:39:59;;;;;;;5.23;1.30;;;;;;;11.55;65.28;96035.63;5051649;28;20315;-77
2021/10/01 08:42:25;;;;;;;2.97;1.60;;;;;;;11.62;65.39;96033.28;5066112;28;20701;-77
2021/10/01 08:44:50;;;;;;;2.37;1.10;;;;;;;11.76;64.41;96034.59;5046358;28;20649;-76
2021/10/01 08:47:17;;;;;;;1.70;1.27;;;;;;;11.96;63.98;96036.19;5049008;28;20288;-76
2021/10/01 08:49:50;;;;;;;1.67;1.30;;;;;;;12.05;63.15;96035.31;5052395;28;20260;-77
2021/10/01 08:52:16;;;;;;;1.13;1.03;;;;;;;12.12;63.27;96033.78;5035743;28;20181;-76
2021/10/01 08:54:43;;;;;;;3.97;1.30;;;;;;;12.27;63.19;96033.28;5056035;28;20180;-76
2021/10/01 08:57:09;;;;;;;2.67;1.20;;;;;;;12.30;62.69;96030.41;5075031;28;20185;-77
2021/10/01 08:59:34;;;;;;;2.57;1.47;;;;;;;12.37;61.95;96021.03;5068642;28;20281;-75
2021/10/01 09:02:00;;;;;;;2.07;1.30;;;;;;;12.40;62.60;96025.94;5048178;28;20221;-77
2021/10/01 09:04:25;;;;;;;2.20;1.00;;;;;;;12.56;62.56;96023.50;5052405;28;20290;-75
2021/10/01 09:06:52;;;;;;;2.20;1.10;;;;;;;12.64;61.57;96020.16;5065420;28;20258;-76
2021/10/01 09:09:17;;;;;;;3.60;1.50;;;;;;;12.68;62.17;96019.72;5051861;28;20205;-75
2021/10/01 09:11:47;;;;;;;12.97;4.50;;;;;;;12.73;62.50;96006.25;5070022;28;20209;-76
2021/10/01 09:14:17;;;;;;;3.07;1.20;;;;;;;12.82;61.81;96014.94;5052278;28;20185;-77
2021/10/01 09:16:42;;;;;;;1.53;1.17;;;;;;;12.89;60.09;96013.34;5054068;28;20729;-76
2021/10/01 09:19:08;;;;;;;5.87;2.67;;;;;;;12.96;60.34;96007.41;5058468;28;20268;-76
2021/10/01 09:21:46;;;;;;;5.07;1.50;;;;;;;13.13;59.35;96012.75;5049600;28;20661;-77
2021/10/01 09:24:14;;;;;;;3.47;1.40;;;;;;;13.16;59.23;96004.59;5049036;28;20271;-77
2021/10/01 09:26:50;;;;;;;7.33;1.60;;;;;;;13.09;59.01;96001.81;5048986;28;20239;-77
2021/10/01 09:29:34;;;;;;;3.33;1.40;;;;;;;13.31;58.68;96000.50;5030759;28;20207;-78
2021/10/01 09:32:01;;;;;;;2.00;1.30;;;;;;;13.35;59.69;95998.44;5063926;28;20181;-77
2021/10/01 09:34:26;;;;;;;2.20;0.93;;;;;;;13.45;58.91;95992.13;5052472;28;20219;-76
2021/10/01 09:37:22;;;;;;;2.93;1.00;;;;;;;13.57;57.79;95990.06;5068863;28;20237;-76
2021/10/01 09:39:56;;;;;;;1.30;1.10;;;;;;;13.60;59.28;95992.34;5011011;28;21175;-76
2021/10/01 09:42:24;;;;;;;2.50;1.20;;;;;;;13.71;58.45;95986.88;5028483;28;20627;-77
2021/10/01 09:45:20;;;;;;;1.97;1.03;;;;;;;13.78;55.78;95987.91;5027788;28;20593;-77
2021/10/01 09:47:48;;;;;;;2.40;1.20;;;;;;;13.80;56.83;95975.50;4969542;28;20221;-77
2021/10/01 09:50:18;;;;;;;2.93;1.60;;;;;;;13.79;57.50;95973.06;4953470;28;20282;-77
2021/10/01 09:52:45;;;;;;;2.33;1.30;;;;;;;13.93;55.75;95976.84;4968816;28;20592;-77
2021/10/01 09:55:12;;;;;;;2.13;1.30;;;;;;;13.92;56.15;95970.00;4970521;28;20197;-77
2021/10/01 09:57:38;;;;;;;2.07;0.90;;;;;;;13.91;57.12;95965.75;4981737;28;20224;-77
2021/10/01 10:00:06;;;;;;;3.60;1.20;;;;;;;13.90;56.41;95962.31;4957032;28;20188;-77
2021/10/01 10:02:37;;;;;;;2.80;1.30;;;;;;;13.97;56.56;95957.31;4969671;28;20203;-78
2021/10/01 10:05:03;;;;;;;1.47;0.90;;;;;;;14.06;56.10;95954.56;4950471;28;20384;-77
2021/10/01 10:07:28;;;;;;;1.67;1.03;;;;;;;14.16;56.06;95954.41;4957436;28;20808;-78
2021/10/01 10:09:56;;;;;;;4.67;1.10;;;;;;;14.26;55.50;95957.69;4974337;28;20196;-78
2021/10/01 10:12:34;;;;;;;1.40;1.30;;;;;;;14.33;53.65;95958.69;4973761;28;20243;-78
2021/10/01 10:15:01;;;;;;;3.70;1.17;;;;;;;14.37;53.54;95957.38;4957223;28;20191;-77
2021/10/01 10:17:27;;;;;;;5.53;1.50;;;;;;;14.35;55.32;95959.34;5011808;28;20214;-78
2021/10/01 10:19:55;;;;;;;3.53;1.10;;;;;;;14.56;55.47;95955.47;4994978;28;20179;-77
2021/10/01 10:22:21;;;;;;;1.87;0.90;;;;;;;14.55;54.70;95952.03;5002631;28;20190;-78
2021/10/01 10:24:48;;;;;;;1.97;1.00;;;;;;;14.72;54.91;95950.25;5044030;28;20586;-78
2021/10/01 10:27:14;;;;;;;3.97;1.03;;;;;;;14.60;54.41;95951.56;5053679;28;20654;-77
2021/10/01 10:29:40;;;;;;;2.03;1.03;;;;;;;14.67;53.23;95955.19;5053870;28;20191;-78
2021/10/01 10:32:10;;;;;;;3.47;0.90;;;;;;;14.69;52.91;95947.97;5036578;28;20181;-77
2021/10/01 10:34:35;;;;;;;2.93;0.90;;;;;;;14.63;52.70;95946.00;5053129;28;20200;-77
2021/10/01 10:37:05;;;;;;;2.90;1.17;;;;;;;14.65;53.22;95946.66;5036634;28;20294;-77
2021/10/01 10:39:42;;;;;;;1.30;0.90;;;;;;;14.88;52.70;95945.03;5047312;28;20687;-77
2021/10/01 10:42:16;;;;;;;2.73;1.03;;;;;;;14.97;52.37;95945.84;5053448;28;20200;-76
2021/10/01 10:44:48;;;;;;;1.43;1.00;;;;;;;15.04;51.00;95938.16;5052721;28;20184;-76
2021/10/01 10:47:51;;;;;;;2.13;1.20;;;;;;;15.16;51.95;95940.25;5035955;28;20224;-76
2021/10/01 10:50:25;;;;;;;2.40;1.17;;;;;;;14.97;52.20;95936.19;5070768;28;20196;-77
2021/10/01 10:53:13;;;;;;;2.17;0.80;;;;;;;15.01;52.76;95934.06;5069734;28;20649;-79
2021/10/01 10:55:49;;;;;;;1.67;0.93;;;;;;;15.21;52.13;95937.16;5068378;28;20181;-78
2021/10/01 10:58:24;;;;;;;1.77;1.20;;;;;;;15.12;52.39;95933.75;5071075;28;20238;-77
2021/10/01 11:00:55;;;;;;;2.07;1.10;;;;;;;15.18;52.04;95925.19;5074230;28;20208;-77
2021/10/01 11:03:22;;;;;;;1.73;1.13;;;;;;;15.22;52.39;95925.69;5061882;28;20173;-78
2021/10/01 11:06:10;;;;;;;1.57;1.10;;;;;;;15.50;52.36;95926.94;5043053;28;20189;-77
2021/10/01 11:09:13;;;;;;;1.50;0.80;;;;;;;15.31;51.37;95922.09;5074863;28;20587;-78
2021/10/01 11:11:41;;;;;;;1.10;0.90;;;;;;;15.37;51.49;95913.56;5031950;28;20284;-78
2021/10/01 11:14:15;;;;;;;3.07;1.40;;;;;;;15.45;52.14;95920.56;5050332;28;20243;-77
2021/10/01 11:16:42;;;;;;;1.80;1.10;;;;;;;15.41;50.91;95916.66;5066334;28;20200;-78
2021/10/01 11:19:09;;;;;;;1.30;1.10;;;;;;;15.56;52.08;95913.19;5051266;28;20628;-77
2021/10/01 11:21:37;;;;;;;1.23;0.85;;;;;;;15.65;50.96;95913.19;5055299;28;20185;-78
2021/10/01 11:24:18;;;;;;;1.92;1.02;;;;;;;15.63;51.89;95908.09;5057397;28;20181;-77
2021/10/01 11:26:46;;;;;;;5.83;1.17;;;;;;;15.80;51.83;95908.84;5046642;28;20275;-77
2021/10/01 11:29:26;;;;;;;2.75;1.13;;;;;;;15.98;50.30;95904.16;5048487;28;20198;-77
2021/10/01 11:31:54;;;;;;;2.50;0.90;;;;;;;16.13;50.96;95899.81;5070300;28;20184;-77
2021/10/01 11:34:42;;;;;;;2.63;1.20;;;;;;;16.07;50.37;95907.53;5056530;28;20189;-77
2021/10/01 11:37:21;;;;;;;2.23;0.90;;;;;;;16.12;50.78;95892.94;5035205;28;20208;-77
2021/10/01 11:39:47;;;;;;;1.95;1.30;;;;;;;16.19;51.61;95882.59;5073291;28;20177;-77
2021/10/01 11:42:26;;;;;;;1.23;0.80;;;;;;;16.14;51.40;95883.09;5055973;28;20299;-77
2021/10/01 11:44:52;;;;;;;1.88;1.13;;;;;;;15.97;50.12;95876.34;5077016;28;20184;-78
2021/10/01 11:47:18;;;;;;;2.38;1.05;;;;;;;16.21;50.23;95871.94;5057288;28;20312;-78
2021/10/01 11:49:57;;;;;;;3.33;1.13;;;;;;;16.18;50.32;95873.13;5046459;28;20161;-79
2021/10/01 11:52:24;;;;;;;1.17;0.75;;;;;;;16.14;50.09;95867.38;5056388;28;20243;-77
2021/10/01 11:54:58;;;;;;;3.53;1.10;;;;;;;16.26;50.57;95859.16;5065137;28;20678;-78
2021/10/01 11:57:35;;;;;;;3.45;1.00;;;;;;;16.43;49.86;95858.84;5045727;28;20245;-79
2021/10/01 12:00:04;;;;;;;1.65;1.42;;;;;;;16.54;50.39;95847.13;5059909;28;20181;-78
2021/10/01 12:02:33;;;;;;;3.78;1.30;;;;;;;16.43;50.62;95843.13;5082676;28;20181;-78
2021/10/01 12:05:15;;;;;;;1.67;1.10;;;;;;;16.58;50.45;95835.28;5062823;28;20632;-78
2021/10/01 12:07:52;;;;;;;1.88;0.95;;;;;;;16.66;50.21;95847.50;5045853;28;20232;-77
2021/10/01 12:10:18;;;;;;;3.92;1.38;;;;;;;16.71;49.64;95845.19;5042167;28;20184;-78
2021/10/01 12:13:26;;;;;;;1.98;1.17;;;;;;;16.85;49.70;95838.34;5058225;28;20181;-78
2021/10/01 12:15:53;;;;;;;2.78;1.17;;;;;;;16.77;49.88;95839.22;5055834;28;20218;-77
2021/10/01 12:18:45;;;;;;;2.05;1.10;;;;;;;16.94;51.11;95827.56;5067017;28;20197;-77
2021/10/01 12:21:15;;;;;;;2.25;1.33;;;;;;;17.03;50.74;95835.34;5072216;28;20249;-78
2021/10/01 12:23:45;;;;;;;1.65;1.10;;;;;;;17.07;50.16;95831.41;5036070;28;20184;-78
2021/10/01 12:26:15;;;;;;;3.83;1.30;;;;;;;16.89;51.34;95823.88;5053059;28;20181;-76
2021/10/01 12:28:42;;;;;;;2.70;1.20;;;;;;;16.96;51.84;95817.75;5039535;28;20200;-79
2021/10/01 12:31:07;;;;;;;2.38;0.90;;;;;;;16.96;49.64;95809.03;5057743;28;20173;-78
2021/10/01 12:33:33;;;;;;;3.63;1.10;;;;;;;16.86;48.75;95808.47;5057674;28;20551;-78
2021/10/01 12:35:59;;;;;;;1.70;1.17;;;;;;;16.90;49.40;95809.75;5041048;28;20645;-78
2021/10/01 12:38:25;;;;;;;1.75;1.02;;;;;;;17.02;49.29;95807.50;5040327;28;20830;-78
2021/10/01 12:41:11;;;;;;;2.67;1.30;;;;;;;16.99;50.02;95808.69;5056969;28;20288;-79
2021/10/01 12:43:49;;;;;;;4.18;1.23;;;;;;;17.10;49.12;95815.28;5055302;28;20189;-78
2021/10/01 12:46:35;;;;;;;3.05;1.20;;;;;;;16.84;49.39;95800.78;5037826;28;20183;-78
2021/10/01 12:49:10;;;;;;;2.70;1.30;;;;;;;16.91;49.06;95800.91;5056367;28;20673;-77
2021/10/01 12:51:35;;;;;;;4.95;1.30;;;;;;;17.11;48.44;95804.59;5057157;28;20182;-77
2021/10/01 12:54:28;;;;;;;3.30;1.10;;;;;;;16.88;50.07;95801.28;5056634;28;20552;-78
2021/10/01 12:57:09;;;;;;;2.65;1.00;;;;;;;16.97;49.64;95795.75;5040620;28;20208;-76
2021/10/01 12:59:42;;;;;;;3.58;1.27;;;;;;;17.21;49.82;95796.44;5069249;28;20552;-77
2021/10/01 13:02:13;;;;;;;2.22;0.90;;;;;;;17.40;48.83;95795.06;5036693;28;20184;-76
2021/10/01 13:04:50;;;;;;;3.83;1.05;;;;;;;17.45;48.98;95790.09;5056019;28;20548;-77
2021/10/01 13:07:27;;;;;;;2.47;1.23;;;;;;;17.33;49.28;95778.44;5056272;28;20201;-78
2021/10/01 13:09:54;;;;;;;1.52;0.90;;;;;;;17.19;50.11;95778.25;5073847;28;20544;-77
2021/10/01 13:12:31;;;;;;;3.17;1.15;;;;;;;17.26;49.85;95773.91;5056217;28;20182;-76